sensor_id;sensor_type;location;lat;lon;timestamp;pressure;altitude;pressure_sealevel;temperature;humidity
4167;BME280;2097;51.104;7.150;2023-02-12T00:00:48;100957.25;;;6.33;100.00
4167;BME280;2097;51.104;7.150;2023-02-12T00:03:16;100903.34;;;5.97;100.00
4167;BME280;2097;51.104;7.150;2023-02-12T00:05:43;100887.03;;;5.95;100.00
4167;BME280;2097;51.104;7.150;2023-02-12T00:08:10;100955.53;;;6.33;100.00
4167;BME280;2097;51.104;7.150;2023-02-12T00:10:39;100958.97;;;6.32;100.00
4167;BME280;2097;51.104;7.150;2023-02-12T00:13:08;100959.81;;;6.31;100.00
4167;BME280;2097;51.104;7.150;2023-02-12T00:15:37;100958.97;;;6.29;100.00
4167;BME280;2097;51.104;7.150;2023-02-12T00:18:04;100953.00;;;6.26;100.00
4167;BME280;2097;51.104;7.150;2023-02-12T00:20:31;100959.88;;;6.25;100.00
4167;BME280;2097;51.104;7.150;2023-02-12T00:22:58;100951.28;;;6.25;100.00
4167;BME280;2097;51.104;7.150;2023-02-12T00:25:24;100952.16;;;6.24;100.00
4167;BME280;2097;51.104;7.150;2023-02-12T00:27:51;100958.16;;;6.24;100.00
4167;BME280;2097;51.104;7.150;2023-02-12T00:30:20;100955.59;;;6.23;100.00
4167;BME280;2097;51.104;7.150;2023-02-12T00:32:47;100954.72;;;6.22;100.00
4167;BME280;2097;51.104;7.150;2023-02-12T00:35:14;100935.91;;;6.08;100.00
4167;BME280;2097;51.104;7.150;2023-02-12T00:37:41;100549.25;;;3.82;100.00
4167;BME280;2097;51.104;7.150;2023-02-12T00:40:08;100866.53;;;5.65;100.00
4167;BME280;2097;51.104;7.150;2023-02-12T00:42:36;100954.78;;;6.16;100.00
4167;BME280;2097;51.104;7.150;2023-02-12T00:45:03;100949.59;;;6.18;100.00
4167;BME280;2097;51.104;7.150;2023-02-12T00:47:31;100946.19;;;6.17;100.00
4167;BME280;2097;51.104;7.150;2023-02-12T00:49:58;100848.53;;;5.57;100.00
4167;BME280;2097;51.104;7.150;2023-02-12T00:52:25;100950.50;;;6.15;100.00
4167;BME280;2097;51.104;7.150;2023-02-12T00:54:52;100947.06;;;6.12;100.00
4167;BME280;2097;51.104;7.150;2023-02-12T00:57:19;100937.63;;;6.09;100.00
4167;BME280;2097;51.104;7.150;2023-02-12T00:59:46;100942.78;;;6.09;100.00
4167;BME280;2097;51.104;7.150;2023-02-12T01:02:13;100942.78;;;6.09;100.00
4167;BME280;2097;51.104;7.150;2023-02-12T01:04:41;100938.47;;;6.10;100.00
4167;BME280;2097;51.104;7.150;2023-02-12T01:07:08;100921.41;;;5.91;100.00
4167;BME280;2097;51.104;7.150;2023-02-12T01:09:35;100943.66;;;6.05;100.00
4167;BME280;2097;51.104;7.150;2023-02-12T01:12:03;100941.94;;;6.04;100.00
4167;BME280;2097;51.104;7.150;2023-02-12T01:14:29;100938.50;;;6.01;100.00
4167;BME280;2097;51.104;7.150;2023-02-12T01:16:56;100929.09;;;5.95;100.00
4167;BME280;2097;51.104;7.150;2023-02-12T01:19:23;100941.13;;;5.93;100.00
4167;BME280;2097;51.104;7.150;2023-02-12T01:21:51;100942.84;;;5.94;100.00
4167;BME280;2097;51.104;7.150;2023-02-12T01:24:18;100942.84;;;5.94;100.00
4167;BME280;2097;51.104;7.150;2023-02-12T01:26:45;100919.72;;;5.76;100.00
4167;BME280;2097;51.104;7.150;2023-02-12T01:29:12;100908.59;;;5.71;100.00
4167;BME280;2097;51.104;7.150;2023-02-12T01:31:38;100818.69;;;5.18;100.00
4167;BME280;2097;51.104;7.150;2023-02-12T01:34:08;100858.94;;;5.40;100.00
4167;BME280;2097;51.104;7.150;2023-02-12T01:36:36;100942.03;;;5.76;100.00
4167;BME280;2097;51.104;7.150;2023-02-12T01:39:05;100948.09;;;5.67;100.00
4167;BME280;2097;51.104;7.150;2023-02-12T01:41:34;100949.84;;;5.59;100.00
4167;BME280;2097;51.104;7.150;2023-02-12T01:44:13;100945.56;;;5.54;100.00
4167;BME280;2097;51.104;7.150;2023-02-12T01:46:41;100946.44;;;5.49;100.00
4167;BME280;2097;51.104;7.150;2023-02-12T01:49:12;100939.59;;;5.45;100.00
4167;BME280;2097;51.104;7.150;2023-02-12T01:51:41;100937.88;;;5.41;100.00
4167;BME280;2097;51.104;7.150;2023-02-12T01:54:12;100943.03;;;5.41;100.00
4167;BME280;2097;51.104;7.150;2023-02-12T01:56:41;100867.66;;;4.94;100.00
4167;BME280;2097;51.104;7.150;2023-02-12T01:59:08;100666.50;;;3.78;100.00
4167;BME280;2097;51.104;7.150;2023-02-12T02:01:35;100949.06;;;5.40;100.00
4167;BME280;2097;51.104;7.150;2023-02-12T02:04:07;100943.03;;;5.42;100.00
4167;BME280;2097;51.104;7.150;2023-02-12T02:06:39;100702.44;;;4.07;100.00
4167;BME280;2097;51.104;7.150;2023-02-12T02:09:10;100942.19;;;5.45;100.00
4167;BME280;2097;51.104;7.150;2023-02-12T02:11:37;100907.88;;;5.31;100.00
4167;BME280;2097;51.104;7.150;2023-02-12T02:14:20;100871.94;;;5.04;100.00
4167;BME280;2097;51.104;7.150;2023-02-12T02:17:07;100937.03;;;5.42;100.00
4167;BME280;2097;51.104;7.150;2023-02-12T02:22:33;100939.59;;;5.45;100.00
4167;BME280;2097;51.104;7.150;2023-02-12T02:25:38;100937.00;;;5.49;100.00
4167;BME280;2097;51.104;7.150;2023-02-12T02:28:30;100898.41;;;5.31;100.00
4167;BME280;2097;51.104;7.150;2023-02-12T02:31:03;100935.25;;;5.50;100.00
4167;BME280;2097;51.104;7.150;2023-02-12T02:33:36;100936.97;;;5.51;100.00
4167;BME280;2097;51.104;7.150;2023-02-12T02:36:13;100941.28;;;5.52;100.00
4167;BME280;2097;51.104;7.150;2023-02-12T02:38:43;100935.25;;;5.53;100.00
4167;BME280;2097;51.104;7.150;2023-02-12T02:41:16;100924.97;;;5.54;100.00
4167;BME280;2097;51.104;7.150;2023-02-12T02:43:48;100933.56;;;5.56;100.00
4167;BME280;2097;51.104;7.150;2023-02-12T02:46:20;100924.97;;;5.57;100.00
4167;BME280;2097;51.104;7.150;2023-02-12T02:48:52;100923.25;;;5.56;100.00
4167;BME280;2097;51.104;7.150;2023-02-12T02:51:24;100907.00;;;5.44;100.00
4167;BME280;2097;51.104;7.150;2023-02-12T02:53:57;100909.56;;;5.39;100.00
4167;BME280;2097;51.104;7.150;2023-02-12T02:56:28;100930.09;;;5.56;100.00
4167;BME280;2097;51.104;7.150;2023-02-12T02:58:58;100924.09;;;5.57;100.00
4167;BME280;2097;51.104;7.150;2023-02-12T03:01:31;100931.81;;;5.58;100.00
4167;BME280;2097;51.104;7.150;2023-02-12T03:04:02;100932.66;;;5.58;100.00
4167;BME280;2097;51.104;7.150;2023-02-12T03:06:35;100869.28;;;5.22;100.00
4167;BME280;2097;51.104;7.150;2023-02-12T03:09:10;100929.22;;;5.59;100.00
4167;BME280;2097;51.104;7.150;2023-02-12T03:11:39;100924.94;;;5.58;100.00
4167;BME280;2097;51.104;7.150;2023-02-12T03:14:09;100921.50;;;5.59;100.00
4167;BME280;2097;51.104;7.150;2023-02-12T03:16:43;100917.22;;;5.61;100.00
4167;BME280;2097;51.104;7.150;2023-02-12T03:19:17;100801.66;;;4.88;100.00
4167;BME280;2097;51.104;7.150;2023-02-12T03:21:48;100926.66;;;5.59;100.00
4167;BME280;2097;51.104;7.150;2023-02-12T03:24:20;100929.25;;;5.57;100.00
4167;BME280;2097;51.104;7.150;2023-02-12T03:26:53;100923.25;;;5.53;100.00
4167;BME280;2097;51.104;7.150;2023-02-12T03:29:23;100911.25;;;5.49;100.00
4167;BME280;2097;51.104;7.150;2023-02-12T03:31:59;100924.94;;;5.56;100.00
4167;BME280;2097;51.104;7.150;2023-02-12T03:34:34;100920.66;;;5.56;100.00
4167;BME280;2097;51.104;7.150;2023-02-12T03:37:07;100918.94;;;5.57;100.00
4167;BME280;2097;51.104;7.150;2023-02-12T03:39:42;100913.78;;;5.57;100.00
4167;BME280;2097;51.104;7.150;2023-02-12T03:42:15;100912.09;;;5.57;100.00
4167;BME280;2097;51.104;7.150;2023-02-12T03:44:47;100909.50;;;5.56;100.00
4167;BME280;2097;51.104;7.150;2023-02-12T03:47:22;100917.22;;;5.56;100.00
4167;BME280;2097;51.104;7.150;2023-02-12T03:49:57;100924.09;;;5.57;100.00
4167;BME280;2097;51.104;7.150;2023-02-12T03:52:25;100916.38;;;5.58;100.00
4167;BME280;2097;51.104;7.150;2023-02-12T03:54:52;100914.66;;;5.57;100.00
4167;BME280;2097;51.104;7.150;2023-02-12T03:57:21;100916.38;;;5.58;100.00
4167;BME280;2097;51.104;7.150;2023-02-12T03:59:48;100918.94;;;5.58;100.00
4167;BME280;2097;51.104;7.150;2023-02-12T04:02:17;100864.13;;;5.25;100.00
4167;BME280;2097;51.104;7.150;2023-02-12T04:04:46;100857.28;;;5.21;100.00
4167;BME280;2097;51.104;7.150;2023-02-12T04:07:14;100781.94;;;4.77;100.00
4167;BME280;2097;51.104;7.150;2023-02-12T04:09:41;100918.97;;;5.55;100.00
4167;BME280;2097;51.104;7.150;2023-02-12T04:12:24;100924.09;;;5.57;100.00
4167;BME280;2097;51.104;7.150;2023-02-12T04:15:07;100808.50;;;4.88;100.00
4167;BME280;2097;51.104;7.150;2023-02-12T04:17:46;100840.19;;;5.05;100.00
4167;BME280;2097;51.104;7.150;2023-02-12T04:20:27;100926.66;;;5.61;100.00
4167;BME280;2097;51.104;7.150;2023-02-12T04:23:08;100919.78;;;5.61;100.00
4167;BME280;2097;51.104;7.150;2023-02-12T04:25:48;100889.84;;;5.32;100.00
4167;BME280;2097;51.104;7.150;2023-02-12T04:28:27;100876.16;;;5.23;100.00
4167;BME280;2097;51.104;7.150;2023-02-12T04:31:01;100941.25;;;5.57;100.00
4167;BME280;2097;51.104;7.150;2023-02-12T04:33:34;100941.25;;;5.55;100.00
4167;BME280;2097;51.104;7.150;2023-02-12T04:36:11;100941.28;;;5.53;100.00
4167;BME280;2097;51.104;7.150;2023-02-12T04:38:42;100835.94;;;4.90;100.00
4167;BME280;2097;51.104;7.150;2023-02-12T04:41:10;100949.84;;;5.55;100.00
4167;BME280;2097;51.104;7.150;2023-02-12T04:43:37;100767.44;;;4.49;100.00
4167;BME280;2097;51.104;7.150;2023-02-12T04:46:05;100942.97;;;5.56;100.00
4167;BME280;2097;51.104;7.150;2023-02-12T04:48:33;100967.88;;;5.57;100.00
4167;BME280;2097;51.104;7.150;2023-02-12T04:51:00;100835.94;;;4.90;100.00
4167;BME280;2097;51.104;7.150;2023-02-12T04:53:28;100952.41;;;5.57;100.00
4167;BME280;2097;51.104;7.150;2023-02-12T04:55:55;100960.13;;;5.57;100.00
4167;BME280;2097;51.104;7.150;2023-02-12T04:58:22;100963.59;;;5.57;100.00
4167;BME280;2097;51.104;7.150;2023-02-12T05:00:49;100954.97;;;5.59;100.00
4167;BME280;2097;51.104;7.150;2023-02-12T05:03:15;100965.31;;;5.58;100.00
4167;BME280;2097;51.104;7.150;2023-02-12T05:05:42;100965.31;;;5.58;100.00
4167;BME280;2097;51.104;7.150;2023-02-12T05:08:09;100959.28;;;5.59;100.00
4167;BME280;2097;51.104;7.150;2023-02-12T05:10:37;100930.19;;;5.29;100.00
4167;BME280;2097;51.104;7.150;2023-02-12T05:13:04;100953.28;;;5.63;100.00
4167;BME280;2097;51.104;7.150;2023-02-12T05:15:31;100953.25;;;5.64;100.00
4167;BME280;2097;51.104;7.150;2023-02-12T05:17:58;100949.81;;;5.65;100.00
4167;BME280;2097;51.104;7.150;2023-02-12T05:20:24;100920.72;;;5.43;100.00
4167;BME280;2097;51.104;7.150;2023-02-12T05:22:52;100930.13;;;5.54;100.00
4167;BME280;2097;51.104;7.150;2023-02-12T05:25:19;100958.41;;;5.67;100.00
4167;BME280;2097;51.104;7.150;2023-02-12T05:27:47;100876.19;;;5.15;100.00
4167;BME280;2097;51.104;7.150;2023-02-12T05:30:14;100956.69;;;5.69;100.00
4167;BME280;2097;51.104;7.150;2023-02-12T05:32:41;100961.81;;;5.69;100.00
4167;BME280;2097;51.104;7.150;2023-02-12T05:35:08;100962.66;;;5.70;100.00
4167;BME280;2097;51.104;7.150;2023-02-12T05:37:35;100967.81;;;5.70;100.00
4167;BME280;2097;51.104;7.150;2023-02-12T05:40:03;100972.13;;;5.69;100.00
4167;BME280;2097;51.104;7.150;2023-02-12T05:42:30;100968.69;;;5.69;100.00
4167;BME280;2097;51.104;7.150;2023-02-12T05:44:58;100907.00;;;5.35;100.00
4167;BME280;2097;51.104;7.150;2023-02-12T05:47:28;100827.38;;;4.75;100.00
4167;BME280;2097;51.104;7.150;2023-02-12T05:49:54;100974.69;;;5.65;100.00
4167;BME280;2097;51.104;7.150;2023-02-12T05:52:21;100951.56;;;5.49;100.00
4167;BME280;2097;51.104;7.150;2023-02-12T05:54:48;100973.88;;;5.61;100.00
4167;BME280;2097;51.104;7.150;2023-02-12T05:57:15;100978.19;;;5.61;100.00
4167;BME280;2097;51.104;7.150;2023-02-12T05:59:42;100980.75;;;5.59;100.00
4167;BME280;2097;51.104;7.150;2023-02-12T06:02:10;100987.63;;;5.59;100.00
4167;BME280;2097;51.104;7.150;2023-02-12T06:04:37;100980.75;;;5.58;100.00
4167;BME280;2097;51.104;7.150;2023-02-12T06:07:04;101003.06;;;5.57;100.00
4167;BME280;2097;51.104;7.150;2023-02-12T06:09:31;100979.91;;;5.59;100.00
4167;BME280;2097;51.104;7.150;2023-02-12T06:11:59;100975.59;;;5.59;100.00
4167;BME280;2097;51.104;7.150;2023-02-12T06:14:26;100618.59;;;3.52;100.00
4167;BME280;2097;51.104;7.150;2023-02-12T06:16:53;100972.16;;;5.57;100.00
4167;BME280;2097;51.104;7.150;2023-02-12T06:19:21;100900.22;;;5.11;100.00
4167;BME280;2097;51.104;7.150;2023-02-12T06:21:49;100892.47;;;5.13;100.00
4167;BME280;2097;51.104;7.150;2023-02-12T06:24:16;100976.44;;;5.58;100.00
4167;BME280;2097;51.104;7.150;2023-02-12T06:26:43;100791.44;;;4.45;100.00
4167;BME280;2097;51.104;7.150;2023-02-12T06:29:10;100895.91;;;5.15;100.00
4167;BME280;2097;51.104;7.150;2023-02-12T06:31:37;100969.59;;;5.57;100.00
4167;BME280;2097;51.104;7.150;2023-02-12T06:34:06;100968.72;;;5.60;100.00
4167;BME280;2097;51.104;7.150;2023-02-12T06:36:35;100969.56;;;5.60;100.00
4167;BME280;2097;51.104;7.150;2023-02-12T06:39:02;100665.63;;;3.76;100.00
4167;BME280;2097;51.104;7.150;2023-02-12T06:41:29;100982.47;;;5.62;100.00
4167;BME280;2097;51.104;7.150;2023-02-12T06:43:56;100844.53;;;4.83;100.00
4167;BME280;2097;51.104;7.150;2023-02-12T06:46:23;100934.47;;;5.36;100.00
4167;BME280;2097;51.104;7.150;2023-02-12T06:48:52;100958.44;;;5.51;100.00
4167;BME280;2097;51.104;7.150;2023-02-12T06:51:19;100985.03;;;5.66;100.00
4167;BME280;2097;51.104;7.150;2023-02-12T06:53:49;100987.59;;;5.66;100.00
4167;BME280;2097;51.104;7.150;2023-02-12T06:56:17;100994.47;;;5.67;100.00
4167;BME280;2097;51.104;7.150;2023-02-12T06:58:47;101006.47;;;5.68;100.00
4167;BME280;2097;51.104;7.150;2023-02-12T07:01:18;100996.16;;;5.68;100.00
4167;BME280;2097;51.104;7.150;2023-02-12T07:03:48;100924.16;;;5.28;100.00
4167;BME280;2097;51.104;7.150;2023-02-12T07:06:16;100913.91;;;5.19;100.00
4167;BME280;2097;51.104;7.150;2023-02-12T07:08:43;101009.88;;;5.75;100.00
4167;BME280;2097;51.104;7.150;2023-02-12T07:11:12;100918.19;;;5.25;100.00
4167;BME280;2097;51.104;7.150;2023-02-12T07:13:40;101009.03;;;5.76;100.00
4167;BME280;2097;51.104;7.150;2023-02-12T07:16:09;101017.63;;;5.78;100.00
4167;BME280;2097;51.104;7.150;2023-02-12T07:18:37;100955.03;;;5.45;100.00
4167;BME280;2097;51.104;7.150;2023-02-12T07:21:06;100948.19;;;5.44;100.00
4167;BME280;2097;51.104;7.150;2023-02-12T07:23:35;101019.31;;;5.89;100.00
4167;BME280;2097;51.104;7.150;2023-02-12T07:26:04;101017.59;;;5.93;100.00
4167;BME280;2097;51.104;7.150;2023-02-12T07:28:32;101016.72;;;5.95;100.00
4167;BME280;2097;51.104;7.150;2023-02-12T07:31:00;101024.47;;;5.97;100.00
4167;BME280;2097;51.104;7.150;2023-02-12T07:33:32;100937.84;;;5.50;100.00
4167;BME280;2097;51.104;7.150;2023-02-12T07:35:59;100944.69;;;5.57;100.00
4167;BME280;2097;51.104;7.150;2023-02-12T07:38:26;100953.28;;;5.58;100.00
4167;BME280;2097;51.104;7.150;2023-02-12T07:40:53;101022.69;;;6.02;100.00
4167;BME280;2097;51.104;7.150;2023-02-12T07:43:23;101018.41;;;6.05;100.00
4167;BME280;2097;51.104;7.150;2023-02-12T07:45:51;101031.25;;;6.10;100.00
4167;BME280;2097;51.104;7.150;2023-02-12T07:48:18;101031.25;;;6.14;100.00
4167;BME280;2097;51.104;7.150;2023-02-12T07:50:45;101032.06;;;6.19;100.00
4167;BME280;2097;51.104;7.150;2023-02-12T07:53:12;100932.66;;;5.64;100.00
4167;BME280;2097;51.104;7.150;2023-02-12T07:55:39;101027.78;;;6.26;100.00
4167;BME280;2097;51.104;7.150;2023-02-12T07:58:06;101039.78;;;6.28;100.00
4167;BME280;2097;51.104;7.150;2023-02-12T08:00:32;101027.75;;;6.32;100.00
4167;BME280;2097;51.104;7.150;2023-02-12T08:03:01;101033.72;;;6.35;100.00
4167;BME280;2097;51.104;7.150;2023-02-12T08:05:28;100807.59;;;5.07;100.00
4167;BME280;2097;51.104;7.150;2023-02-12T08:07:54;100912.03;;;5.66;100.00
4167;BME280;2097;51.104;7.150;2023-02-12T08:10:21;101037.09;;;6.49;100.00
4167;BME280;2097;51.104;7.150;2023-02-12T08:12:48;101048.25;;;6.53;100.00
4167;BME280;2097;51.104;7.150;2023-02-12T08:15:15;101045.63;;;6.57;100.00
4167;BME280;2097;51.104;7.150;2023-02-12T08:17:42;101024.22;;;6.45;100.00
4167;BME280;2097;51.104;7.150;2023-02-12T08:20:11;101025.06;;;6.47;100.00
4167;BME280;2097;51.104;7.150;2023-02-12T08:22:38;100965.94;;;6.17;100.00
4167;BME280;2097;51.104;7.150;2023-02-12T08:25:05;101049.84;;;6.73;100.00
4167;BME280;2097;51.104;7.150;2023-02-12T08:27:32;100990.69;;;6.42;100.00
4167;BME280;2097;51.104;7.150;2023-02-12T08:29:59;101051.50;;;6.84;100.00
4167;BME280;2097;51.104;7.150;2023-02-12T08:32:25;101053.19;;;6.88;100.00
4167;BME280;2097;51.104;7.150;2023-02-12T08:34:53;101059.19;;;6.93;100.00
4167;BME280;2097;51.104;7.150;2023-02-12T08:37:22;101062.59;;;6.97;100.00
4167;BME280;2097;51.104;7.150;2023-02-12T08:39:48;101064.31;;;6.99;100.00
4167;BME280;2097;51.104;7.150;2023-02-12T08:42:15;101067.72;;;7.03;100.00
4167;BME280;2097;51.104;7.150;2023-02-12T08:44:42;101061.69;;;7.05;100.00
4167;BME280;2097;51.104;7.150;2023-02-12T08:47:09;101071.13;;;7.09;100.00
4167;BME280;2097;51.104;7.150;2023-02-12T08:49:36;101062.47;;;7.12;100.00
4167;BME280;2097;51.104;7.150;2023-02-12T08:52:03;101069.31;;;7.17;100.00
4167;BME280;2097;51.104;7.150;2023-02-12T08:54:31;101065.84;;;7.23;100.00
4167;BME280;2097;51.104;7.150;2023-02-12T08:56:59;101064.09;;;7.28;100.00
4167;BME280;2097;51.104;7.150;2023-02-12T08:59:27;101066.56;;;7.37;100.00
4167;BME280;2097;51.104;7.150;2023-02-12T09:01:54;101062.22;;;7.42;100.00
4167;BME280;2097;51.104;7.150;2023-02-12T09:04:22;101065.59;;;7.50;100.00
4167;BME280;2097;51.104;7.150;2023-02-12T09:06:50;101002.19;;;7.19;100.00
4167;BME280;2097;51.104;7.150;2023-02-12T09:09:17;101067.13;;;7.70;100.00
4167;BME280;2097;51.104;7.150;2023-02-12T09:11:45;100961.78;;;7.12;100.00
4167;BME280;2097;51.104;7.150;2023-02-12T09:14:14;100998.38;;;7.56;100.00
4167;BME280;2097;51.104;7.150;2023-02-12T09:16:43;101016.28;;;7.71;100.00
4167;BME280;2097;51.104;7.150;2023-02-12T09:19:12;101076.16;;;8.11;100.00
4167;BME280;2097;51.104;7.150;2023-02-12T09:21:39;100925.38;;;7.36;100.00
4167;BME280;2097;51.104;7.150;2023-02-12T09:24:07;101074.25;;;8.31;100.00
4167;BME280;2097;51.104;7.150;2023-02-12T09:26:34;101021.97;;;8.01;100.00
4167;BME280;2097;51.104;7.150;2023-02-12T09:29:03;101018.50;;;8.03;100.00
4167;BME280;2097;51.104;7.150;2023-02-12T09:31:31;101086.94;;;8.51;100.00
4167;BME280;2097;51.104;7.150;2023-02-12T09:33:59;101081.69;;;8.55;100.00
4167;BME280;2097;51.104;7.150;2023-02-12T09:36:28;101027.72;;;8.27;100.00
4167;BME280;2097;51.104;7.150;2023-02-12T09:38:55;101021.59;;;8.35;100.00
4167;BME280;2097;51.104;7.150;2023-02-12T09:41:47;101074.50;;;8.75;100.00
4167;BME280;2097;51.104;7.150;2023-02-12T09:44:21;100792.19;;;7.17;100.00
4167;BME280;2097;51.104;7.150;2023-02-12T09:46:57;101075.09;;;8.94;100.00
4167;BME280;2097;51.104;7.150;2023-02-12T09:49:42;101083.66;;;8.99;100.00
4167;BME280;2097;51.104;7.150;2023-02-12T09:52:15;101082.72;;;9.02;100.00
4167;BME280;2097;51.104;7.150;2023-02-12T09:54:43;101085.31;;;9.04;100.00
4167;BME280;2097;51.104;7.150;2023-02-12T09:57:16;100985.13;;;8.50;100.00
4167;BME280;2097;51.104;7.150;2023-02-12T09:59:50;100746.81;;;6.98;100.00
4167;BME280;2097;51.104;7.150;2023-02-12T10:02:19;101089.47;;;9.14;100.00
4167;BME280;2097;51.104;7.150;2023-02-12T10:04:47;101086.81;;;9.17;100.00
4167;BME280;2097;51.104;7.150;2023-02-12T10:07:24;101090.16;;;9.25;100.00
4167;BME280;2097;51.104;7.150;2023-02-12T10:10:08;101092.66;;;9.29;100.00
4167;BME280;2097;51.104;7.150;2023-02-12T10:12:46;101084.84;;;9.34;100.00
4167;BME280;2097;51.104;7.150;2023-02-12T10:15:34;101089.13;;;9.35;100.00
4167;BME280;2097;51.104;7.150;2023-02-12T10:18:20;101097.78;;;9.34;100.00
4167;BME280;2097;51.104;7.150;2023-02-12T10:21:13;101010.38;;;8.92;100.00
4167;BME280;2097;51.104;7.150;2023-02-12T10:23:57;101085.53;;;9.45;100.00
4167;BME280;2097;51.104;7.150;2023-02-12T10:26:29;100995.63;;;8.97;100.00
4167;BME280;2097;51.104;7.150;2023-02-12T10:28:58;101082.75;;;9.55;100.00
4167;BME280;2097;51.104;7.150;2023-02-12T10:31:35;101086.97;;;9.61;100.00
4167;BME280;2097;51.104;7.150;2023-02-12T10:34:13;101088.63;;;9.65;100.00
4167;BME280;2097;51.104;7.150;2023-02-12T10:36:42;101086.84;;;9.67;100.00
4167;BME280;2097;51.104;7.150;2023-02-12T10:39:19;101083.34;;;9.69;100.00
4167;BME280;2097;51.104;7.150;2023-02-12T10:41:49;101078.97;;;9.73;100.00
4167;BME280;2097;51.104;7.150;2023-02-12T10:44:18;100923.53;;;8.73;100.00
4167;BME280;2097;51.104;7.150;2023-02-12T10:46:46;101094.50;;;9.76;100.00
4167;BME280;2097;51.104;7.150;2023-02-12T10:49:16;101080.66;;;9.75;100.00
4167;BME280;2097;51.104;7.150;2023-02-12T10:51:59;101059.28;;;9.63;100.00
4167;BME280;2097;51.104;7.150;2023-02-12T10:54:33;101078.81;;;9.82;100.00
4167;BME280;2097;51.104;7.150;2023-02-12T10:57:09;101079.72;;;9.79;100.00
4167;BME280;2097;51.104;7.150;2023-02-12T10:59:37;100955.78;;;9.05;100.00
4167;BME280;2097;51.104;7.150;2023-02-12T11:02:20;100885.56;;;8.74;100.00
4167;BME280;2097;51.104;7.150;2023-02-12T11:04:49;100959.34;;;8.99;100.00
4167;BME280;2097;51.104;7.150;2023-02-12T11:07:16;101091.91;;;9.76;100.00
4167;BME280;2097;51.104;7.150;2023-02-12T11:09:46;101004.41;;;9.40;100.00
4167;BME280;2097;51.104;7.150;2023-02-12T11:12:25;101079.63;;;9.84;100.00
4167;BME280;2097;51.104;7.150;2023-02-12T11:14:57;101080.44;;;9.86;100.00
4167;BME280;2097;51.104;7.150;2023-02-12T11:17:31;100889.66;;;8.87;100.00
4167;BME280;2097;51.104;7.150;2023-02-12T11:22:57;100935.63;;;9.21;100.00
4167;BME280;2097;51.104;7.150;2023-02-12T11:25:26;101062.06;;;9.98;100.00
4167;BME280;2097;51.104;7.150;2023-02-12T11:28:03;101055.16;;;10.00;100.00
4167;BME280;2097;51.104;7.150;2023-02-12T11:30:31;101038.13;;;9.84;100.00
4167;BME280;2097;51.104;7.150;2023-02-12T11:33:27;101062.06;;;10.01;100.00
4167;BME280;2097;51.104;7.150;2023-02-12T11:35:57;101048.22;;;9.99;100.00
4167;BME280;2097;51.104;7.150;2023-02-12T11:38:31;101048.22;;;9.99;100.00
4167;BME280;2097;51.104;7.150;2023-02-12T11:41:02;100875.78;;;8.89;100.00
4167;BME280;2097;51.104;7.150;2023-02-12T11:43:30;100897.28;;;8.94;100.00
4167;BME280;2097;51.104;7.150;2023-02-12T11:46:02;101044.78;;;10.00;100.00
4167;BME280;2097;51.104;7.150;2023-02-12T11:48:33;101040.41;;;10.02;100.00
4167;BME280;2097;51.104;7.150;2023-02-12T11:51:03;101031.75;;;10.03;100.00
4167;BME280;2097;51.104;7.150;2023-02-12T11:53:35;101038.53;;;10.10;100.00
4167;BME280;2097;51.104;7.150;2023-02-12T11:56:07;100948.63;;;9.65;100.00
4167;BME280;2097;51.104;7.150;2023-02-12T11:58:34;100918.66;;;9.50;100.00
4167;BME280;2097;51.104;7.150;2023-02-12T12:01:09;100969.00;;;9.83;100.00
4167;BME280;2097;51.104;7.150;2023-02-12T12:03:44;100813.59;;;8.92;100.00
4167;BME280;2097;51.104;7.150;2023-02-12T12:06:24;101037.38;;;10.24;100.00
4167;BME280;2097;51.104;7.150;2023-02-12T12:09:00;100979.19;;;9.92;100.00
4167;BME280;2097;51.104;7.150;2023-02-12T12:11:36;100704.38;;;8.28;100.00
4167;BME280;2097;51.104;7.150;2023-02-12T12:14:11;101024.31;;;10.27;100.00
4167;BME280;2097;51.104;7.150;2023-02-12T12:16:46;101018.16;;;10.32;100.00
4167;BME280;2097;51.104;7.150;2023-02-12T12:19:39;100829.34;;;9.24;100.00
4167;BME280;2097;51.104;7.150;2023-02-12T12:22:28;101018.03;;;10.38;100.00
4167;BME280;2097;51.104;7.150;2023-02-12T12:24:59;100843.03;;;9.32;100.00
4167;BME280;2097;51.104;7.150;2023-02-12T12:27:37;101011.00;;;10.43;100.00
4167;BME280;2097;51.104;7.150;2023-02-12T12:30:31;101014.38;;;10.47;100.00
4167;BME280;2097;51.104;7.150;2023-02-12T12:33:05;100996.56;;;10.30;100.00
4167;BME280;2097;51.104;7.150;2023-02-12T12:35:44;101013.75;;;10.36;100.00
4167;BME280;2097;51.104;7.150;2023-02-12T12:38:22;101010.34;;;10.32;100.00
4167;BME280;2097;51.104;7.150;2023-02-12T12:41:01;100883.03;;;9.60;100.00
4167;BME280;2097;51.104;7.150;2023-02-12T12:43:38;101001.66;;;10.35;100.00
4167;BME280;2097;51.104;7.150;2023-02-12T12:46:29;100840.09;;;9.48;100.00
4167;BME280;2097;51.104;7.150;2023-02-12T12:52:00;100855.69;;;9.85;100.00
4167;BME280;2097;51.104;7.150;2023-02-12T12:54:42;100953.81;;;10.46;100.00
4167;BME280;2097;51.104;7.150;2023-02-12T12:57:19;100859.72;;;10.01;100.00
4167;BME280;2097;51.104;7.150;2023-02-12T13:00:04;100915.75;;;10.45;100.00
4167;BME280;2097;51.104;7.150;2023-02-12T13:03:03;100952.31;;;10.73;100.00
4167;BME280;2097;51.104;7.150;2023-02-12T13:05:55;100973.59;;;10.88;100.00
4167;BME280;2097;51.104;7.150;2023-02-12T13:08:38;100856.53;;;10.24;100.00
4167;BME280;2097;51.104;7.150;2023-02-12T13:11:16;100959.66;;;10.91;100.00
4167;BME280;2097;51.104;7.150;2023-02-12T13:13:50;100843.56;;;10.24;100.00
4167;BME280;2097;51.104;7.150;2023-02-12T13:16:23;100961.44;;;10.89;100.00
4167;BME280;2097;51.104;7.150;2023-02-12T13:18:59;100965.88;;;10.85;100.00
4167;BME280;2097;51.104;7.150;2023-02-12T13:21:41;100905.94;;;10.56;100.00
4167;BME280;2097;51.104;7.150;2023-02-12T13:24:21;100905.16;;;10.54;100.00
4167;BME280;2097;51.104;7.150;2023-02-12T13:26:54;100785.66;;;9.86;100.00
4167;BME280;2097;51.104;7.150;2023-02-12T13:29:25;100959.66;;;10.91;100.00
4167;BME280;2097;51.104;7.150;2023-02-12T13:31:56;100956.28;;;10.87;100.00
4167;BME280;2097;51.104;7.150;2023-02-12T13:34:27;100906.75;;;10.60;100.00
4167;BME280;2097;51.104;7.150;2023-02-12T13:36:56;100956.22;;;10.90;100.00
4167;BME280;2097;51.104;7.150;2023-02-12T13:39:30;100763.41;;;9.78;100.00